Dubois, Idaho
Current Conditions -  °F | °C
As of 2:53 AM on Saturday 22 Nov 2014 (Local Time) from KRXE Reporting Station
Overcast Overcast  
Wind Chill: 30°   Ceiling: 6000
Heat Index: 36°   Visibility: 10mi
Dew Point: 27°   Wind: 7mph
Humidity: 70%   Direction: 220°SW
Pressure: 29.83"   Gusts: NA
Location:  44.18°N, 112.23°W
Report Text: KRXE 220953Z AUTO 22006KT 10SM OVC060 02/M03 A2983 RMK AO2 SLP108 T00221028
Loading
Personal Weather Stations






























Interactive Weather Map New forecast layout! Learn more

10-Day Weather Forecast

Advertisements
Track Severe Weather on mobile